Time;durP1;ratioP1;P1;durP2;ratioP2;P2;SDS_P1;SDS_P2;PMS_P1;PMS_P2;Temp;Humidity;BMP_temperature;BMP_pressure;BME280_temperature;BME280_humidity;BME280_pressure;Samples;Min_cycle;Max_cycle;Signal;HPM_P1;HPM_P2
2021/09/04 00:00:38;;;;;;;39.13;24.52;;;14.90;99.90;;;;;;5010186;28;25081;-73
2021/09/04 00:03:03;;;;;;;39.63;25.85;;;14.90;99.90;;;;;;5010815;28;25179;-74
2021/09/04 00:05:29;;;;;;;38.90;26.52;;;14.80;99.90;;;;;;5010264;28;25133;-74
2021/09/04 00:07:55;;;;;;;37.88;25.52;;;14.80;99.90;;;;;;5009620;28;25113;-74
2021/09/04 00:10:22;;;;;;;48.63;29.40;;;14.80;99.90;;;;;;5011715;28;25081;-72
2021/09/04 00:12:48;;;;;;;37.20;24.75;;;14.70;99.90;;;;;;5006765;28;25056;-73
2021/09/04 00:15:14;;;;;;;37.03;25.38;;;14.70;99.90;;;;;;5008412;28;25110;-74
2021/09/04 00:17:40;;;;;;;41.53;25.73;;;14.80;99.90;;;;;;5004186;28;25079;-72
2021/09/04 00:20:07;;;;;;;38.78;24.05;;;14.80;99.90;;;;;;5010133;28;25069;-74
2021/09/04 00:22:33;;;;;;;35.33;24.23;;;14.90;99.90;;;;;;5000613;28;25109;-73
2021/09/04 00:24:58;;;;;;;39.03;26.27;;;14.90;99.90;;;;;;5010467;28;25082;-73
2021/09/04 00:27:24;;;;;;;38.42;24.48;;;14.80;99.90;;;;;;5010890;28;25053;-74
2021/09/04 00:29:50;;;;;;;31.85;24.08;;;14.70;99.90;;;;;;5011463;28;25095;-74
2021/09/04 00:32:16;;;;;;;39.30;26.15;;;14.70;99.90;;;;;;5009394;28;25078;-74
2021/09/04 00:34:41;;;;;;;36.85;25.25;;;14.70;99.90;;;;;;5009976;28;25063;-74
2021/09/04 00:37:07;;;;;;;37.00;25.95;;;14.70;99.90;;;;;;5006320;28;25154;-74
2021/09/04 00:39:33;;;;;;;34.83;24.00;;;14.50;99.90;;;;;;5010863;28;25094;-73
2021/09/04 00:41:58;;;;;;;43.20;24.95;;;14.50;99.90;;;;;;5005034;28;25121;-74
2021/09/04 00:44:24;;;;;;;41.78;23.67;;;14.40;99.90;;;;;;5010737;28;25063;-73
2021/09/04 00:46:49;;;;;;;41.42;24.95;;;14.50;99.90;;;;;;5011727;28;25103;-74
2021/09/04 00:49:16;;;;;;;36.00;24.42;;;14.40;99.90;;;;;;5010500;28;25076;-74
2021/09/04 00:51:41;;;;;;;42.58;23.95;;;14.40;99.90;;;;;;5007308;28;25071;-73
2021/09/04 00:54:08;;;;;;;36.67;24.40;;;14.50;99.90;;;;;;5013026;28;25072;-71
2021/09/04 00:56:36;;;;;;;36.55;24.52;;;14.50;99.90;;;;;;5012177;28;24967;-74
2021/09/04 00:59:06;;;;;;;39.90;25.40;;;14.40;99.90;;;;;;5011346;28;25086;-73
2021/09/04 01:01:32;;;;;;;36.72;24.52;;;14.30;99.90;;;;;;5012048;28;25094;-73
2021/09/04 01:04:00;;;;;;;39.38;24.48;;;14.20;99.90;;;;;;5011303;28;25103;-72
2021/09/04 01:06:26;;;;;;;36.83;22.77;;;14.20;99.90;;;;;;5010752;28;25072;-73
2021/09/04 01:08:51;;;;;;;40.80;24.15;;;14.30;99.90;;;;;;5010248;28;25145;-76
2021/09/04 01:11:17;;;;;;;36.40;23.50;;;14.30;99.90;;;;;;5011525;28;25061;-75
2021/09/04 01:13:43;;;;;;;45.70;24.05;;;14.30;99.90;;;;;;5010512;28;25061;-74
2021/09/04 01:16:09;;;;;;;37.95;24.13;;;14.30;99.90;;;;;;5011266;28;25153;-73
2021/09/04 01:18:35;;;;;;;38.67;23.58;;;14.20;99.90;;;;;;5011625;28;25091;-74
2021/09/04 01:21:06;;;;;;;36.15;24.63;;;14.10;99.90;;;;;;5010979;28;25064;-73
2021/09/04 01:23:32;;;;;;;39.40;24.88;;;14.10;99.90;;;;;;5010215;28;25155;-73
2021/09/04 01:26:11;;;;;;;40.35;25.02;;;14.10;99.90;;;;;;5011385;28;25067;-73
2021/09/04 01:28:38;;;;;;;33.35;23.45;;;14.00;99.90;;;;;;5007465;28;25061;-73
2021/09/04 01:31:05;;;;;;;43.55;24.90;;;14.00;99.90;;;;;;5002131;28;25069;-75
2021/09/04 01:33:31;;;;;;;32.83;23.27;;;14.10;99.90;;;;;;5007366;28;25057;-73
2021/09/04 01:35:57;;;;;;;37.85;23.00;;;14.00;99.90;;;;;;5009466;28;25105;-73
2021/09/04 01:38:23;;;;;;;41.38;24.95;;;14.00;99.90;;;;;;5010216;28;25150;-74
2021/09/04 01:40:48;;;;;;;43.35;25.55;;;14.10;99.90;;;;;;5008430;28;25057;-73
2021/09/04 01:43:14;;;;;;;38.92;24.98;;;14.00;99.90;;;;;;5010568;28;25052;-73
2021/09/04 01:45:40;;;;;;;44.22;25.63;;;13.80;99.90;;;;;;5009043;28;25076;-74
2021/09/04 01:48:06;;;;;;;38.80;25.38;;;13.70;99.90;;;;;;5010121;28;25078;-73
2021/09/04 01:50:31;;;;;;;45.42;24.02;;;13.70;99.90;;;;;;5002676;28;25066;-74
2021/09/04 01:52:58;;;;;;;41.60;24.30;;;13.70;99.90;;;;;;5001996;28;25112;-73
2021/09/04 01:55:24;;;;;;;38.60;24.17;;;13.70;99.90;;;;;;5004477;28;25095;-74
2021/09/04 01:57:50;;;;;;;38.50;24.33;;;13.80;99.90;;;;;;5008830;28;25135;-74
2021/09/04 02:00:16;;;;;;;38.88;23.40;;;13.70;99.90;;;;;;5006485;28;25090;-74
2021/09/04 02:02:43;;;;;;;42.58;23.83;;;13.70;99.90;;;;;;5014915;28;25094;-74
2021/09/04 02:05:10;;;;;;;40.88;24.67;;;13.60;99.90;;;;;;5011512;28;25049;-74
2021/09/04 02:07:36;;;;;;;45.05;26.13;;;13.60;99.90;;;;;;5009247;28;25080;-73
2021/09/04 02:10:04;;;;;;;38.10;24.50;;;13.60;99.90;;;;;;5010832;28;25115;-75
2021/09/04 02:12:29;;;;;;;42.63;23.75;;;13.50;99.90;;;;;;5008594;28;25083;-74
2021/09/04 02:14:55;;;;;;;41.85;25.23;;;13.50;99.90;;;;;;5011640;28;25056;-74
2021/09/04 02:17:21;;;;;;;48.47;25.15;;;13.50;99.90;;;;;;5009260;28;25103;-73
2021/09/04 02:19:47;;;;;;;41.38;26.23;;;13.50;99.90;;;;;;5009805;28;25075;-74
2021/09/04 02:22:13;;;;;;;43.97;25.30;;;13.50;99.90;;;;;;5009367;28;25060;-73
2021/09/04 02:24:39;;;;;;;38.95;27.77;;;13.50;99.90;;;;;;5009389;28;25093;-73
2021/09/04 02:27:05;;;;;;;50.35;26.42;;;13.40;99.90;;;;;;5010515;28;25063;-74
2021/09/04 02:29:31;;;;;;;38.33;24.98;;;13.40;99.90;;;;;;5010952;28;25075;-73
2021/09/04 02:31:57;;;;;;;42.58;23.58;;;13.50;99.90;;;;;;5010444;28;25092;-74
2021/09/04 02:34:22;;;;;;;39.72;25.85;;;13.50;99.90;;;;;;5007115;28;25082;-74
2021/09/04 02:36:48;;;;;;;42.13;25.15;;;13.40;99.90;;;;;;5009979;28;25097;-76
2021/09/04 02:39:14;;;;;;;42.22;24.48;;;13.30;99.90;;;;;;5001222;28;25069;-76
2021/09/04 02:41:40;;;;;;;38.60;24.75;;;13.30;99.90;;;;;;5005918;28;25075;-75
2021/09/04 02:44:05;;;;;;;37.38;23.63;;;13.30;99.90;;;;;;5012445;28;25067;-73
2021/09/04 02:46:32;;;;;;;45.95;27.73;;;13.40;99.90;;;;;;5010499;28;25071;-75
2021/09/04 02:48:58;;;;;;;40.03;24.35;;;13.30;99.90;;;;;;5002456;28;25159;-72
2021/09/04 02:51:23;;;;;;;41.30;23.73;;;13.30;99.90;;;;;;5007859;28;25090;-73
2021/09/04 02:53:49;;;;;;;41.90;23.20;;;13.30;99.90;;;;;;5016303;28;25076;-73
2021/09/04 02:56:14;;;;;;;38.42;21.92;;;13.20;99.90;;;;;;5033401;28;25095;-72
2021/09/04 02:58:41;;;;;;;37.45;23.42;;;13.10;99.90;;;;;;5020753;28;25067;-72
2021/09/04 03:01:07;;;;;;;40.28;22.77;;;13.30;99.90;;;;;;5022063;28;25101;-73
2021/09/04 03:03:32;;;;;;;35.33;22.38;;;13.30;99.90;;;;;;5023352;28;25076;-76
2021/09/04 03:06:01;;;;;;;47.25;23.85;;;13.20;99.90;;;;;;5016842;28;25082;-74
2021/09/04 03:08:28;;;;;;;37.85;23.48;;;13.20;99.90;;;;;;5013230;28;25063;-73
2021/09/04 03:10:53;;;;;;;43.42;23.88;;;13.10;99.90;;;;;;5017099;28;25081;-75
2021/09/04 03:13:19;;;;;;;39.38;24.13;;;13.10;99.90;;;;;;5010394;28;25125;-73
2021/09/04 03:15:44;;;;;;;40.72;23.23;;;13.10;99.90;;;;;;5008195;28;25110;-73
2021/09/04 03:18:10;;;;;;;44.70;23.38;;;13.10;99.90;;;;;;5007823;28;25063;-74
2021/09/04 03:20:36;;;;;;;38.30;21.92;;;13.20;99.90;;;;;;5005582;28;25056;-74
2021/09/04 03:23:01;;;;;;;42.30;21.45;;;13.20;99.90;;;;;;5005482;28;25073;-73
2021/09/04 03:25:27;;;;;;;42.42;21.90;;;13.20;99.90;;;;;;5010645;28;25055;-73
2021/09/04 03:27:52;;;;;;;36.63;21.80;;;13.20;99.90;;;;;;5011122;28;25071;-74
2021/09/04 03:30:18;;;;;;;47.45;23.17;;;13.20;99.90;;;;;;5010844;28;24805;-74
2021/09/04 03:32:44;;;;;;;39.47;22.02;;;13.00;99.90;;;;;;5001200;28;25063;-73
2021/09/04 03:35:10;;;;;;;39.13;21.75;;;13.00;99.90;;;;;;5012851;28;25095;-73
2021/09/04 03:37:36;;;;;;;39.35;23.45;;;13.00;99.90;;;;;;5010995;28;25088;-73
2021/09/04 03:40:02;;;;;;;36.17;21.20;;;13.00;99.90;;;;;;5012802;28;25101;-72
2021/09/04 03:42:27;;;;;;;42.28;22.45;;;13.00;99.90;;;;;;5007853;28;25167;-72
2021/09/04 03:44:53;;;;;;;34.58;20.55;;;13.00;99.90;;;;;;5006603;28;25108;-74
2021/09/04 03:47:19;;;;;;;35.10;20.17;;;13.00;99.90;;;;;;5003022;28;25064;-73
2021/09/04 03:49:44;;;;;;;44.97;25.10;;;13.20;99.90;;;;;;5005882;28;25140;-74
2021/09/04 03:52:10;;;;;;;43.25;22.58;;;13.00;99.90;;;;;;4999215;28;25063;-73
2021/09/04 03:54:35;;;;;;;34.65;21.65;;;13.00;99.90;;;;;;5006813;28;25075;-74
2021/09/04 03:57:01;;;;;;;36.40;21.73;;;13.00;99.90;;;;;;5009229;28;25078;-72
2021/09/04 03:59:27;;;;;;;38.28;22.15;;;13.10;99.90;;;;;;5012111;28;25074;-73
2021/09/04 04:01:52;;;;;;;38.30;21.73;;;13.00;99.90;;;;;;5010688;28;25079;-72
2021/09/04 04:04:18;;;;;;;39.10;25.08;;;13.00;99.90;;;;;;5011789;28;25064;-73
2021/09/04 04:06:44;;;;;;;38.72;21.60;;;12.90;99.90;;;;;;5010490;28;25082;-73
2021/09/04 04:09:09;;;;;;;36.35;22.67;;;12.90;99.90;;;;;;5009730;28;25086;-74
2021/09/04 04:11:35;;;;;;;39.78;21.63;;;12.90;99.90;;;;;;5010235;28;25071;-73
2021/09/04 04:14:00;;;;;;;34.60;21.25;;;12.90;99.90;;;;;;5008982;28;25086;-73
2021/09/04 04:16:26;;;;;;;41.97;23.02;;;12.90;99.90;;;;;;5014075;28;25098;-76
2021/09/04 04:18:52;;;;;;;41.95;22.63;;;12.90;99.90;;;;;;5011681;28;25139;-75
2021/09/04 04:21:17;;;;;;;44.25;23.48;;;12.90;99.90;;;;;;5006415;28;25101;-77
2021/09/04 04:23:43;;;;;;;36.47;22.45;;;12.90;99.90;;;;;;5008039;28;25081;-72
2021/09/04 04:26:08;;;;;;;41.22;21.95;;;12.90;99.90;;;;;;5005982;28;25069;-74
2021/09/04 04:28:34;;;;;;;37.17;22.20;;;12.90;99.90;;;;;;5004197;28;25056;-74
2021/09/04 04:31:02;;;;;;;43.88;23.73;;;12.90;99.90;;;;;;5002726;28;25111;-74
2021/09/04 04:33:28;;;;;;;41.25;22.40;;;12.90;99.90;;;;;;5006946;28;25079;-78
2021/09/04 04:35:54;;;;;;;41.70;24.25;;;12.90;99.90;;;;;;5012415;28;25095;-74
2021/09/04 04:38:20;;;;;;;47.33;24.63;;;12.90;99.90;;;;;;5005786;28;25079;-73
2021/09/04 04:40:45;;;;;;;43.33;23.90;;;12.90;99.90;;;;;;5004330;28;25095;-75
2021/09/04 04:43:11;;;;;;;47.35;25.05;;;12.90;99.90;;;;;;4999101;28;25075;-74
2021/09/04 04:45:36;;;;;;;47.08;24.60;;;12.80;99.90;;;;;;4999139;28;25099;-74
2021/09/04 04:48:02;;;;;;;54.58;27.38;;;12.70;99.90;;;;;;5003512;28;25135;-74
2021/09/04 04:50:28;;;;;;;49.72;27.55;;;12.80;99.90;;;;;;4999356;28;25099;-77
2021/09/04 04:52:53;;;;;;;61.05;30.08;;;12.90;99.90;;;;;;5002791;28;25086;-73
2021/09/04 04:55:19;;;;;;;50.42;29.08;;;12.80;99.90;;;;;;5011682;28;25062;-74
2021/09/04 04:57:45;;;;;;;56.47;29.75;;;12.80;99.90;;;;;;5006965;28;25066;-74
2021/09/04 05:00:12;;;;;;;48.97;26.67;;;12.90;99.90;;;;;;5005992;28;25076;-75
2021/09/04 05:02:38;;;;;;;49.85;28.30;;;12.90;99.90;;;;;;5003768;28;25132;-75
2021/09/04 05:05:05;;;;;;;63.22;32.72;;;12.90;99.90;;;;;;5001531;28;25067;-75
2021/09/04 05:07:31;;;;;;;49.83;29.63;;;12.80;99.90;;;;;;5002228;28;25072;-75
2021/09/04 05:09:57;;;;;;;55.42;31.27;;;12.70;99.90;;;;;;5000178;28;25164;-74
2021/09/04 05:12:22;;;;;;;66.43;32.42;;;12.70;99.90;;;;;;5003287;28;25054;-74
2021/09/04 05:14:48;;;;;;;56.33;28.33;;;12.60;99.90;;;;;;5007623;28;25066;-75
2021/09/04 05:17:13;;;;;;;65.85;31.20;;;12.60;99.90;;;;;;5005382;28;25071;-77
2021/09/04 05:19:39;;;;;;;61.53;31.33;;;12.70;99.90;;;;;;5000652;28;25064;-74
2021/09/04 05:22:05;;;;;;;70.32;33.53;;;12.60;99.90;;;;;;5010699;28;25060;-75
2021/09/04 05:24:30;;;;;;;59.80;32.40;;;12.60;99.90;;;;;;5009700;28;25155;-74
2021/09/04 05:26:56;;;;;;;60.40;30.67;;;12.60;99.90;;;;;;5007534;28;25061;-75
2021/09/04 05:29:21;;;;;;;64.30;32.60;;;12.70;99.90;;;;;;5010521;28;25061;-74
2021/09/04 05:31:47;;;;;;;57.10;30.25;;;12.70;99.90;;;;;;5005488;28;25142;-73
2021/09/04 05:34:14;;;;;;;61.55;32.30;;;12.80;99.90;;;;;;5011129;28;25075;-74
2021/09/04 05:36:40;;;;;;;64.30;32.08;;;12.80;99.90;;;;;;5010558;28;25064;-74
2021/09/04 05:39:05;;;;;;;66.57;33.33;;;12.80;99.90;;;;;;5010425;28;25071;-73
2021/09/04 05:41:31;;;;;;;60.17;28.77;;;12.80;99.90;;;;;;5010745;28;25044;-75
2021/09/04 05:43:57;;;;;;;52.55;28.42;;;12.80;99.90;;;;;;5009794;28;25113;-74
2021/09/04 05:46:22;;;;;;;54.30;30.00;;;12.90;99.90;;;;;;5009995;28;25081;-73
2021/09/04 05:48:48;;;;;;;53.38;27.60;;;13.00;99.90;;;;;;5005125;28;25080;-72
2021/09/04 05:51:13;;;;;;;44.28;27.65;;;13.00;99.90;;;;;;5006666;28;25075;-74
2021/09/04 05:53:39;;;;;;;55.90;27.77;;;13.10;99.90;;;;;;5005006;28;25166;-74
2021/09/04 05:56:05;;;;;;;53.75;28.83;;;13.00;99.90;;;;;;5005717;28;25055;-73
2021/09/04 05:58:31;;;;;;;51.03;28.70;;;12.90;99.90;;;;;;5010283;28;25079;-76
2021/09/04 06:00:56;;;;;;;51.90;28.95;;;13.00;99.90;;;;;;5009604;28;25062;-75
2021/09/04 06:03:22;;;;;;;54.40;27.73;;;13.00;99.90;;;;;;5008162;28;25194;-74
2021/09/04 06:05:48;;;;;;;50.53;27.20;;;13.00;99.90;;;;;;5008961;28;25073;-74
2021/09/04 06:08:13;;;;;;;48.20;27.00;;;13.00;99.90;;;;;;5000109;28;25065;-74
2021/09/04 06:10:39;;;;;;;55.75;28.30;;;13.10;99.90;;;;;;4992935;28;25060;-74
2021/09/04 06:13:05;;;;;;;51.08;28.73;;;13.10;99.90;;;;;;4997167;28;25074;-74
2021/09/04 06:15:30;;;;;;;52.63;29.50;;;13.10;99.90;;;;;;4998091;28;25068;-73
2021/09/04 06:17:56;;;;;;;53.78;29.33;;;13.10;99.90;;;;;;5000835;28;25045;-72
2021/09/04 06:20:22;;;;;;;53.10;29.38;;;13.10;99.90;;;;;;5003970;28;25061;-74
2021/09/04 06:22:47;;;;;;;54.92;28.42;;;13.20;99.90;;;;;;5005799;28;25139;-75
2021/09/04 06:25:13;;;;;;;45.97;27.52;;;13.20;99.90;;;;;;5005765;28;25098;-75
2021/09/04 06:27:39;;;;;;;50.90;29.88;;;13.20;99.90;;;;;;4995712;28;25074;-74
2021/09/04 06:30:06;;;;;;;55.97;29.55;;;13.30;99.90;;;;;;4998395;28;25079;-74
2021/09/04 06:32:31;;;;;;;46.47;27.70;;;13.20;99.90;;;;;;5002471;28;25089;-75
2021/09/04 06:34:57;;;;;;;50.38;28.65;;;13.20;99.90;;;;;;5001488;28;25098;-75
2021/09/04 06:37:23;;;;;;;52.22;28.65;;;13.20;99.90;;;;;;5001487;28;25069;-75
2021/09/04 06:39:49;;;;;;;56.30;30.38;;;13.10;99.90;;;;;;5000126;28;25058;-73
2021/09/04 06:42:15;;;;;;;57.95;31.70;;;13.10;99.90;;;;;;5013284;28;25064;-74
2021/09/04 06:44:40;;;;;;;58.75;29.55;;;13.10;99.90;;;;;;5012080;28;25074;-74
2021/09/04 06:47:06;;;;;;;64.05;31.80;;;13.00;99.90;;;;;;5005698;28;25136;-75
2021/09/04 06:49:32;;;;;;;56.90;28.48;;;13.10;99.90;;;;;;5004674;28;25132;-76
2021/09/04 06:51:57;;;;;;;52.22;28.35;;;13.10;99.90;;;;;;4998850;28;25138;-74
2021/09/04 06:54:25;;;;;;;54.33;28.85;;;13.10;99.90;;;;;;5000257;28;25159;-74
2021/09/04 06:56:51;;;;;;;49.75;28.75;;;13.20;99.90;;;;;;4997262;28;25061;-74
2021/09/04 06:59:17;;;;;;;62.08;30.60;;;13.30;99.90;;;;;;4998597;28;25053;-74
2021/09/04 07:01:43;;;;;;;67.10;30.02;;;13.30;99.90;;;;;;5008556;28;25093;-76
2021/09/04 07:04:09;;;;;;;50.75;28.67;;;13.40;99.90;;;;;;4998766;28;25086;-74
2021/09/04 07:06:35;;;;;;;51.20;28.85;;;13.40;99.90;;;;;;5006230;28;25067;-74
2021/09/04 07:09:01;;;;;;;51.42;29.17;;;13.40;99.90;;;;;;5003601;28;25081;-74
2021/09/04 07:11:26;;;;;;;51.85;28.33;;;13.40;99.90;;;;;;5004848;28;25076;-74
2021/09/04 07:13:52;;;;;;;53.47;28.77;;;13.40;99.90;;;;;;5009535;28;25059;-75
2021/09/04 07:16:18;;;;;;;55.60;28.88;;;13.30;99.90;;;;;;5002482;28;25074;-74
2021/09/04 07:18:44;;;;;;;51.28;29.30;;;13.30;99.90;;;;;;5004306;28;25059;-74
2021/09/04 07:21:10;;;;;;;58.03;32.10;;;13.30;99.90;;;;;;4998724;28;25071;-74
2021/09/04 07:23:35;;;;;;;59.13;32.13;;;13.30;99.90;;;;;;5002187;28;25111;-74
2021/09/04 07:26:01;;;;;;;56.70;30.65;;;13.40;99.90;;;;;;5006684;28;25057;-74
2021/09/04 07:28:27;;;;;;;57.65;32.10;;;13.40;99.90;;;;;;4999442;28;25086;-74
2021/09/04 07:30:53;;;;;;;58.88;30.90;;;13.50;99.90;;;;;;5005969;28;25137;-73
2021/09/04 07:33:19;;;;;;;56.53;29.73;;;13.50;99.90;;;;;;5007167;28;25074;-72
2021/09/04 07:35:45;;;;;;;49.58;30.02;;;13.50;99.90;;;;;;5002463;28;25064;-74
2021/09/04 07:38:11;;;;;;;55.22;27.48;;;13.50;99.90;;;;;;4996890;28;25065;-75
2021/09/04 07:40:37;;;;;;;50.97;28.13;;;13.40;99.90;;;;;;5005906;28;25090;-72
2021/09/04 07:43:03;;;;;;;64.10;33.97;;;13.40;99.90;;;;;;5004843;28;25190;-72
2021/09/04 07:45:29;;;;;;;56.53;29.80;;;13.50;99.90;;;;;;5003680;28;25068;-75
2021/09/04 07:47:55;;;;;;;66.55;33.28;;;13.50;99.90;;;;;;4996847;28;25098;-73
2021/09/04 07:50:20;;;;;;;56.58;32.28;;;13.40;99.90;;;;;;5004269;28;25092;-75
2021/09/04 07:52:46;;;;;;;52.15;30.40;;;13.50;99.90;;;;;;5003053;28;25061;-72
2021/09/04 07:55:12;;;;;;;56.65;31.30;;;13.40;99.90;;;;;;5010620;28;25047;-73
2021/09/04 07:57:38;;;;;;;66.90;31.55;;;13.40;99.90;;;;;;5008763;28;25078;-74
2021/09/04 08:00:04;;;;;;;57.45;31.10;;;13.40;99.90;;;;;;5008445;28;25083;-74
2021/09/04 08:02:30;;;;;;;61.95;32.72;;;13.50;99.90;;;;;;5009276;28;25181;-75
2021/09/04 08:04:55;;;;;;;57.05;31.15;;;13.50;99.90;;;;;;5009244;28;25080;-73
2021/09/04 08:07:21;;;;;;;58.38;30.63;;;13.50;99.90;;;;;;4998282;28;25066;-74
2021/09/04 08:09:47;;;;;;;60.20;31.73;;;13.60;99.90;;;;;;5001435;28;25104;-73
2021/09/04 08:12:12;;;;;;;61.10;31.33;;;13.50;99.90;;;;;;5006695;28;25065;-74
2021/09/04 08:14:38;;;;;;;59.58;33.28;;;13.50;99.90;;;;;;5008931;28;25114;-74
2021/09/04 08:17:03;;;;;;;60.42;31.85;;;13.50;99.90;;;;;;5002467;28;25062;-74
2021/09/04 08:19:29;;;;;;;57.92;33.42;;;13.60;99.90;;;;;;4999003;28;25062;-73
2021/09/04 08:21:55;;;;;;;53.20;31.05;;;13.70;99.90;;;;;;5003849;28;25053;-73
2021/09/04 08:24:20;;;;;;;56.67;31.65;;;13.70;99.90;;;;;;4999337;28;25062;-73
2021/09/04 08:26:46;;;;;;;52.80;31.17;;;13.60;99.90;;;;;;5003881;28;25103;-75
2021/09/04 08:29:12;;;;;;;47.97;29.95;;;13.70;99.90;;;;;;5006478;28;25057;-72
2021/09/04 08:31:37;;;;;;;51.08;30.50;;;13.70;99.90;;;;;;5004258;28;25074;-74
2021/09/04 08:34:03;;;;;;;54.58;32.53;;;13.80;99.90;;;;;;5009727;28;25178;-73
2021/09/04 08:36:30;;;;;;;54.13;31.00;;;13.80;99.90;;;;;;5002621;28;25079;-73
2021/09/04 08:38:55;;;;;;;51.58;31.95;;;13.80;99.90;;;;;;4999124;28;25141;-74
2021/09/04 08:41:21;;;;;;;51.63;28.83;;;13.80;99.90;;;;;;5009366;28;25058;-73
2021/09/04 08:43:46;;;;;;;48.85;28.65;;;13.90;99.90;;;;;;5002101;28;25110;-72
2021/09/04 08:46:14;;;;;;;48.58;29.17;;;14.00;99.90;;;;;;5006047;28;25148;-71
2021/09/04 08:48:41;;;;;;;52.90;31.23;;;14.00;99.90;;;;;;5002418;28;25057;-74
2021/09/04 08:51:07;;;;;;;52.83;31.50;;;14.00;99.90;;;;;;5002763;28;25060;-75
2021/09/04 08:53:32;;;;;;;49.97;31.33;;;13.90;99.90;;;;;;5011022;28;25069;-78
2021/09/04 08:55:58;;;;;;;49.97;31.15;;;14.00;99.90;;;;;;5011020;28;25105;-74
2021/09/04 08:58:23;;;;;;;44.97;29.35;;;13.90;99.90;;;;;;5003497;28;25076;-73
2021/09/04 09:00:49;;;;;;;47.85;28.40;;;13.90;99.90;;;;;;5003708;28;25179;-73
2021/09/04 09:03:24;;;;;;;52.67;28.65;;;14.00;99.90;;;;;;5002399;28;25088;-72
2021/09/04 09:05:51;;;;;;;45.22;27.35;;;14.00;99.90;;;;;;4985251;28;25068;-73
2021/09/04 09:08:22;;;;;;;46.65;28.48;;;14.10;99.90;;;;;;5020085;28;25052;-72
2021/09/04 09:10:48;;;;;;;46.92;30.08;;;14.10;99.90;;;;;;5026819;28;25121;-74
2021/09/04 09:13:21;;;;;;;47.88;28.80;;;14.30;99.90;;;;;;5027440;28;25111;-74
2021/09/04 09:15:51;;;;;;;52.13;31.13;;;14.20;99.90;;;;;;5025780;28;25063;-73
2021/09/04 09:18:17;;;;;;;43.65;28.52;;;14.20;99.90;;;;;;5028637;28;25080;-73
2021/09/04 09:20:46;;;;;;;52.97;30.67;;;14.20;99.90;;;;;;5002548;28;25073;-74
2021/09/04 09:23:16;;;;;;;42.03;26.58;;;14.20;99.90;;;;;;5002452;28;25098;-73
2021/09/04 09:25:44;;;;;;;36.60;26.63;;;14.30;99.90;;;;;;5002736;28;25067;-73
2021/09/04 09:28:12;;;;;;;50.17;28.52;;;14.50;99.90;;;;;;5005454;28;25114;-72
2021/09/04 09:30:47;;;;;;;44.45;28.63;;;14.40;99.90;;;;;;5002758;28;25142;-71
2021/09/04 09:33:19;;;;;;;42.58;27.40;;;14.40;99.90;;;;;;5005440;28;25141;-72
2021/09/04 09:35:53;;;;;;;49.30;29.27;;;14.40;99.90;;;;;;5001266;28;25069;-72
2021/09/04 09:38:22;;;;;;;45.60;28.63;;;14.50;99.90;;;;;;4997141;28;25059;-73
2021/09/04 09:40:52;;;;;;;50.03;31.80;;;14.40;99.90;;;;;;5001739;28;25065;-72
2021/09/04 09:43:32;;;;;;;44.85;28.10;;;14.40;99.90;;;;;;5003832;28;25054;-76
2021/09/04 09:46:07;;;;;;;44.13;28.13;;;14.40;99.90;;;;;;5007450;28;25073;-72
2021/09/04 09:48:36;;;;;;;47.40;29.60;;;14.40;99.90;;;;;;5005520;28;25062;-75
2021/09/04 09:51:05;;;;;;;40.75;27.80;;;14.30;99.90;;;;;;5003418;28;25127;-73
2021/09/04 09:53:31;;;;;;;40.42;25.95;;;14.40;99.90;;;;;;5004203;28;25058;-71
2021/09/04 09:55:58;;;;;;;40.55;26.52;;;14.50;99.90;;;;;;5003583;28;25067;-72
2021/09/04 09:58:25;;;;;;;33.80;24.13;;;14.60;99.90;;;;;;5007576;28;25148;-71
2021/09/04 10:00:55;;;;;;;44.47;26.38;;;14.70;99.90;;;;;;5001483;28;25076;-72
2021/09/04 10:03:23;;;;;;;36.88;24.08;;;14.80;99.90;;;;;;5002362;28;25067;-72
2021/09/04 10:05:50;;;;;;;39.85;25.92;;;14.80;99.90;;;;;;5004161;28;25078;-71
2021/09/04 10:08:19;;;;;;;38.88;25.83;;;14.90;99.90;;;;;;5004284;28;25075;-71
2021/09/04 10:10:45;;;;;;;34.38;24.30;;;14.90;99.90;;;;;;4991835;28;25080;-72
2021/09/04 10:13:14;;;;;;;34.03;23.58;;;14.90;99.90;;;;;;5002677;28;25093;-73
2021/09/04 10:15:42;;;;;;;35.05;24.02;;;15.10;99.90;;;;;;5007638;28;25066;-71
2021/09/04 10:18:10;;;;;;;32.30;22.55;;;15.10;99.90;;;;;;5006486;28;25064;-72
2021/09/04 10:20:36;;;;;;;33.22;23.13;;;15.20;99.90;;;;;;5009843;28;25086;-71
2021/09/04 10:23:29;;;;;;;30.15;21.35;;;15.30;99.90;;;;;;5014544;28;25065;-72
2021/09/04 10:26:26;;;;;;;30.88;22.02;;;15.40;99.90;;;;;;5024385;28;25054;-72
2021/09/04 10:29:15;;;;;;;41.17;23.95;;;15.30;99.90;;;;;;5034052;28;25050;-71
2021/09/04 10:31:53;;;;;;;35.47;22.63;;;15.30;99.90;;;;;;5025604;28;25052;-71
2021/09/04 10:34:30;;;;;;;34.13;23.55;;;15.30;99.90;;;;;;5026391;28;25077;-70
2021/09/04 10:36:56;;;;;;;37.22;25.73;;;15.40;99.90;;;;;;5005871;28;25058;-73
2021/09/04 10:39:44;;;;;;;41.25;26.05;;;15.40;99.90;;;;;;5008184;28;25169;-71
2021/09/04 10:42:10;;;;;;;37.47;25.15;;;15.30;99.90;;;;;;5000797;28;25154;-71
2021/09/04 10:44:36;;;;;;;39.65;25.45;;;15.40;99.90;;;;;;5000304;28;25122;-71
2021/09/04 10:47:06;;;;;;;40.75;23.25;;;15.40;99.90;;;;;;4997855;28;25136;-71
2021/09/04 10:49:41;;;;;;;34.72;24.35;;;15.60;99.90;;;;;;5002247;28;25063;-71
2021/09/04 10:52:08;;;;;;;32.85;24.63;;;15.70;99.90;;;;;;4997888;28;25079;-71
2021/09/04 10:54:40;;;;;;;33.83;23.15;;;15.60;99.90;;;;;;4998275;28;25111;-70
2021/09/04 10:57:14;;;;;;;33.53;24.27;;;15.70;99.90;;;;;;4998554;28;25081;-71
2021/09/04 11:00:06;;;;;;;35.42;23.27;;;15.90;99.90;;;;;;4995428;28;25063;-71
2021/09/04 11:02:49;;;;;;;28.40;21.15;;;16.00;99.90;;;;;;5005016;28;25070;-70
2021/09/04 11:05:44;;;;;;;32.78;22.98;;;16.10;99.90;;;;;;4997743;28;25053;-71
2021/09/04 11:08:30;;;;;;;34.08;24.35;;;16.30;99.90;;;;;;4980286;28;25059;-70
2021/09/04 11:11:35;;;;;;;38.40;25.63;;;16.40;99.90;;;;;;4998280;28;25072;-70
2021/09/04 11:14:21;;;;;;;32.05;24.52;;;16.60;99.90;;;;;;5010561;28;25069;-69
2021/09/04 11:16:50;;;;;;;33.70;24.33;;;16.90;99.90;;;;;;4999627;28;25087;-71
2021/09/04 11:19:21;;;;;;;32.75;24.15;;;16.70;99.90;;;;;;4999400;28;25073;-70
2021/09/04 11:21:54;;;;;;;28.38;22.40;;;16.70;99.90;;;;;;5001659;28;25071;-70
2021/09/04 11:24:27;;;;;;;31.33;23.05;;;17.00;99.90;;;;;;5001907;28;25138;-69
2021/09/04 11:26:54;;;;;;;;;;;17.50;99.90;;;;;;4994173;28;25068;-70
2021/09/04 11:29:21;;;;;;;28.83;20.52;;;17.70;99.90;;;;;;5004560;28;24106;-71
2021/09/04 11:31:57;;;;;;;31.85;23.42;;;18.00;99.90;;;;;;5002572;28;25059;-71
2021/09/04 11:34:39;;;;;;;36.35;23.30;;;18.10;99.90;;;;;;4998901;28;25101;-69
2021/09/04 11:37:27;;;;;;;28.55;22.00;;;17.90;99.90;;;;;;4997198;28;25054;-70
2021/09/04 11:40:02;;;;;;;27.52;21.98;;;18.10;99.90;;;;;;4996772;28;25065;-69
2021/09/04 11:42:30;;;;;;;35.08;22.35;;;18.30;99.90;;;;;;4998020;28;25106;-71
2021/09/04 11:45:00;;;;;;;34.00;22.25;;;18.80;99.90;;;;;;4997326;28;25077;-70
2021/09/04 11:47:28;;;;;;;29.02;22.73;;;19.20;99.90;;;;;;5003956;28;25049;-71
2021/09/04 11:49:56;;;;;;;28.15;21.75;;;19.60;99.90;;;;;;5004211;28;25057;-69
2021/09/04 11:52:29;;;;;;;31.73;22.80;;;20.20;99.90;;;;;;5001910;28;25087;-74
2021/09/04 11:55:13;;;;;;;27.55;21.80;;;20.40;99.90;;;;;;5001078;28;25158;-70
2021/09/04 11:57:41;;;;;;;30.27;22.02;;;20.40;99.90;;;;;;4999331;28;25113;-70
2021/09/04 12:00:08;;;;;;;28.77;22.40;;;20.70;99.90;;;;;;5002033;28;25052;-71
2021/09/04 12:02:35;;;;;;;30.17;22.38;;;21.00;99.90;;;;;;5009205;28;25056;-71
2021/09/04 12:05:06;;;;;;;27.55;21.35;;;20.90;99.90;;;;;;5008938;28;25071;-71
2021/09/04 12:07:34;;;;;;;26.80;19.70;;;21.20;99.90;;;;;;5008215;28;25053;-71
2021/09/04 12:10:01;;;;;;;26.33;21.08;;;21.40;99.90;;;;;;5007594;28;25062;-72
2021/09/04 12:12:29;;;;;;;28.02;21.35;;;21.50;99.90;;;;;;5009790;28;25144;-71
2021/09/04 12:14:56;;;;;;;25.40;19.77;;;21.80;99.90;;;;;;5004576;28;25072;-71
2021/09/04 12:17:23;;;;;;;35.00;22.15;;;21.90;99.90;;;;;;5001945;28;25063;-70
2021/09/04 12:19:50;;;;;;;24.55;19.15;;;22.20;99.90;;;;;;5006928;28;25049;-72
2021/09/04 12:22:17;;;;;;;27.13;21.08;;;22.30;99.90;;;;;;5006844;28;25143;-68
2021/09/04 12:24:43;;;;;;;26.73;21.38;;;22.10;99.90;;;;;;5007569;28;25154;-72
2021/09/04 12:27:09;;;;;;;28.88;22.45;;;21.70;99.90;;;;;;5009006;28;25052;-73
2021/09/04 12:29:35;;;;;;;30.25;21.65;;;21.00;99.90;;;;;;5009538;28;25129;-72